createdAt,value
2019-05-12T00:01:18.690Z,100686.06
2019-05-12T00:06:24.503Z,100686.80
2019-05-12T00:11:30.454Z,100685.86
2019-05-12T00:16:38.413Z,100691.45
2019-05-12T00:21:44.135Z,100689.77
2019-05-12T00:26:51.638Z,100701.41
2019-05-12T00:31:58.039Z,100714.41
2019-05-12T00:37:04.097Z,100703.47
2019-05-12T00:42:10.063Z,100704.49
2019-05-12T00:47:15.930Z,100701.64
2019-05-12T00:52:21.957Z,100704.95
2019-05-12T00:57:28.653Z,100713.84
2019-05-12T01:02:34.664Z,100713.69
2019-05-12T01:07:40.736Z,100714.55
2019-05-12T01:12:48.517Z,100719.98
2019-05-12T01:17:54.242Z,100728.02
2019-05-12T01:23:00.292Z,100735.09
2019-05-12T01:28:08.086Z,100733.43
2019-05-12T01:33:13.872Z,100746.58
2019-05-12T01:38:19.839Z,100750.76
2019-05-12T01:43:27.626Z,100764.95
2019-05-12T01:48:33.197Z,100772.64
2019-05-12T01:53:39.087Z,100777.06
2019-05-12T01:58:44.963Z,100775.40
2019-05-12T02:03:50.929Z,100781.55
2019-05-12T02:08:58.538Z,100784.75
2019-05-12T02:14:06.140Z,100787.77
2019-05-12T02:19:12.111Z,100799.36
2019-05-12T02:24:26.524Z,100810.02
2019-05-12T02:29:25.512Z,100817.59
2019-05-12T02:34:31.367Z,100819.20
2019-05-12T02:39:37.332Z,100818.86
2019-05-12T02:44:44.356Z,100827.78
2019-05-12T02:49:50.503Z,100831.31
2019-05-12T02:55:00.791Z,100827.84
2019-05-12T03:00:07.992Z,100835.72
2019-05-12T03:05:14.946Z,100839.80
2019-05-12T03:10:21.249Z,100835.94
2019-05-12T03:15:28.780Z,100849.56
2019-05-12T03:20:35.647Z,100857.29
2019-05-12T03:25:45.399Z,100878.97
2019-05-12T03:30:49.607Z,100870.55
2019-05-12T03:36:00.522Z,100869.83
2019-05-12T03:41:05.300Z,100872.35
2019-05-12T03:46:10.824Z,100875.39
2019-05-12T03:51:16.807Z,100874.11
2019-05-12T03:56:25.916Z,100875.73
2019-05-12T04:01:30.488Z,100879.24
2019-05-12T04:06:36.818Z,100871.80
2019-05-12T04:11:44.412Z,100868.27
2019-05-12T04:16:50.238Z,100867.39
2019-05-12T04:21:56.336Z,100869.16
2019-05-12T04:27:05.265Z,100875.41
2019-05-12T04:32:10.196Z,100877.44
2019-05-12T04:37:16.165Z,100887.05
2019-05-12T04:42:25.125Z,100890.61
2019-05-12T04:47:29.645Z,100903.12
2019-05-12T04:52:35.725Z,100917.53
2019-05-12T04:57:44.784Z,100932.30
2019-05-12T05:02:49.708Z,100940.36
2019-05-12T05:07:55.910Z,100946.03
2019-05-12T05:13:04.703Z,100956.39
2019-05-12T05:18:09.676Z,100966.95
2019-05-12T05:23:15.742Z,100968.03
2019-05-12T05:28:23.658Z,100966.28
2019-05-12T05:33:29.318Z,100982.81
2019-05-12T05:38:35.198Z,100996.34
2019-05-12T05:43:43.178Z,100989.66
2019-05-12T05:48:48.827Z,100998.15
2019-05-12T05:53:54.745Z,101010.80
2019-05-12T05:59:00.710Z,101016.75
2019-05-12T06:04:08.710Z,101017.81
2019-05-12T06:09:14.271Z,101013.03
2019-05-12T06:14:20.479Z,101019.70
2019-05-12T06:19:26.445Z,101021.72
2019-05-12T06:24:33.422Z,101023.42
2019-05-12T06:29:39.709Z,101036.76
2019-05-12T06:34:45.654Z,101045.55
2019-05-12T06:39:56.578Z,101047.53
2019-05-12T06:44:59.465Z,101052.59
2019-05-12T06:50:07.285Z,101071.60
2019-05-12T06:55:14.563Z,101079.27
2019-05-12T07:00:22.315Z,101087.71
2019-05-12T07:05:33.705Z,101100.55
2019-05-12T07:10:43.129Z,101107.08
2019-05-12T07:15:44.637Z,101108.72
2019-05-12T07:20:50.739Z,101114.19
2019-05-12T07:25:57.175Z,101110.22
2019-05-12T07:31:03.901Z,101113.02
2019-05-12T07:36:13.816Z,101123.73
2019-05-12T07:41:23.698Z,101139.00
2019-05-12T07:46:30.112Z,101142.80
2019-05-12T07:51:40.518Z,101148.92
2019-05-12T07:56:44.369Z,101163.02
2019-05-12T08:01:52.613Z,101173.83
2019-05-12T08:06:58.357Z,101177.39
2019-05-12T08:12:04.347Z,101183.52
2019-05-12T08:17:17.047Z,101186.39
2019-05-12T08:22:25.129Z,101190.64
2019-05-12T08:27:27.367Z,101200.16
2019-05-12T08:32:33.921Z,101207.58
2019-05-12T08:37:40.118Z,101209.55
2019-05-12T08:42:46.094Z,101211.92
2019-05-12T08:47:54.158Z,101216.92
2019-05-12T08:52:59.989Z,101213.63
2019-05-12T08:58:06.458Z,101210.96
2019-05-12T09:03:14.158Z,101228.21
2019-05-12T09:08:19.716Z,101238.06
2019-05-12T09:13:25.906Z,101226.81
2019-05-12T09:18:35.085Z,101227.72
2019-05-12T09:23:41.365Z,101227.59
2019-05-12T09:28:50.403Z,101243.02
2019-05-12T09:33:55.338Z,101265.31
2019-05-12T09:39:02.939Z,101277.50
2019-05-12T09:44:09.244Z,101272.38
2019-05-12T09:49:16.814Z,101279.35
2019-05-12T09:54:27.813Z,101272.61
2019-05-12T09:59:30.513Z,101283.14
2019-05-12T10:04:36.482Z,101300.75
2019-05-12T10:09:44.048Z,101311.30
2019-05-12T10:14:50.471Z,101312.48
2019-05-12T10:19:58.075Z,101321.89
2019-05-12T10:25:06.810Z,101321.27
2019-05-12T10:30:17.311Z,101328.55
2019-05-12T10:35:26.202Z,101331.57
2019-05-12T10:40:29.535Z,101329.61
2019-05-12T10:45:36.240Z,101336.92
2019-05-12T10:50:44.134Z,101331.94
2019-05-12T10:55:49.898Z,101347.19
2019-05-12T11:00:59.094Z,101347.03
2019-05-12T11:06:07.542Z,101354.24
2019-05-12T11:11:13.511Z,101363.23
2019-05-12T11:16:22.825Z,101370.21
2019-05-12T11:21:26.311Z,101367.20
2019-05-12T11:26:32.287Z,101378.16
2019-05-12T11:31:38.273Z,101385.84
2019-05-12T11:36:44.237Z,101382.97
2019-05-12T11:41:50.611Z,101386.45
2019-05-12T11:46:56.540Z,101392.52
2019-05-12T11:52:09.678Z,101404.88
2019-05-12T11:57:10.462Z,101408.91
2019-05-12T12:02:20.145Z,101426.38
2019-05-12T12:07:24.655Z,101422.17
2019-05-12T12:12:31.663Z,101420.83
2019-05-12T12:17:37.725Z,101434.75
2019-05-12T12:22:44.673Z,101438.81
2019-05-12T12:27:50.589Z,101448.42
2019-05-12T12:33:00.267Z,101463.79
2019-05-12T12:38:04.545Z,101455.03
2019-05-12T12:43:10.647Z,101455.09
2019-05-12T12:48:19.256Z,101455.70
2019-05-12T12:53:27.452Z,101467.46
2019-05-12T12:58:34.392Z,101464.70
2019-05-12T13:03:39.455Z,101452.52
2019-05-12T13:08:45.630Z,101459.80
2019-05-12T13:13:53.452Z,101463.79
2019-05-12T13:19:06.208Z,101465.33
2019-05-12T13:24:06.812Z,101464.52
2019-05-12T13:29:13.434Z,101462.56
2019-05-12T13:34:19.688Z,101460.66
2019-05-12T13:39:25.854Z,101460.08
2019-05-12T13:44:36.485Z,101469.86
2019-05-12T13:49:44.073Z,101474.29
2019-05-12T13:54:47.287Z,101475.75
2019-05-12T14:00:04.165Z,101485.57
2019-05-12T14:05:06.236Z,101485.09
2019-05-12T14:10:13.739Z,101490.55
2019-05-12T14:15:19.220Z,101489.27
2019-05-12T14:20:25.094Z,101486.10
2019-05-12T14:25:32.970Z,101489.98
2019-05-12T14:30:41.323Z,101495.84
2019-05-12T14:35:46.091Z,101504.30
2019-05-12T14:40:53.656Z,101504.80
2019-05-12T14:46:00.210Z,101506.85
2019-05-12T14:51:07.780Z,101510.88
2019-05-12T14:56:14.081Z,101524.66
2019-05-12T15:01:20.124Z,101527.58
2019-05-12T15:06:29.516Z,101533.39
2019-05-12T15:11:34.429Z,101528.79
2019-05-12T15:16:42.000Z,101546.22
2019-05-12T15:21:47.904Z,101564.23
2019-05-12T15:26:57.500Z,101573.65
2019-05-12T15:32:03.911Z,101575.48
2019-05-12T15:37:09.456Z,101592.73
2019-05-12T15:42:15.373Z,101601.88
2019-05-12T15:47:30.074Z,101609.34
2019-05-12T15:52:41.098Z,101616.75
2019-05-12T15:57:44.054Z,101627.30
2019-05-12T16:02:50.122Z,101619.31
2019-05-12T16:07:56.184Z,101640.02
2019-05-12T16:13:02.262Z,101639.90
2019-05-12T16:18:10.210Z,101649.17
2019-05-12T16:23:28.020Z,101658.25
2019-05-12T16:28:26.675Z,101660.39
2019-05-12T16:33:33.418Z,101673.06
2019-05-12T16:38:39.582Z,101681.83
2019-05-12T16:43:45.554Z,101668.30
2019-05-12T16:48:54.550Z,101680.50
2019-05-12T16:53:59.140Z,101688.67
2019-05-12T16:59:08.907Z,101692.47
2019-05-12T17:04:14.357Z,101704.80
2019-05-12T17:09:20.542Z,101706.36
2019-05-12T17:14:28.553Z,101695.93
2019-05-12T17:19:34.126Z,101704.55
2019-05-12T17:24:40.185Z,101711.27
2019-05-12T17:29:46.150Z,101723.24
2019-05-12T17:34:53.295Z,101728.45
2019-05-12T17:39:59.322Z,101736.87
2019-05-12T17:50:17.855Z,101747.66
2019-05-12T17:55:23.896Z,101760.05
2019-05-12T18:00:29.869Z,101755.02
2019-05-12T18:05:35.842Z,101754.30
2019-05-12T18:10:43.640Z,101753.69
2019-05-12T18:15:49.411Z,101768.11
2019-05-12T18:20:55.764Z,101772.63
2019-05-12T18:26:03.023Z,101777.73
2019-05-12T18:31:08.740Z,101778.14
2019-05-12T18:36:15.041Z,101773.88
2019-05-12T18:41:21.116Z,101787.09
2019-05-12T18:46:27.194Z,101783.43
2019-05-12T18:51:34.280Z,101785.63
2019-05-12T18:56:40.565Z,101788.69
2019-05-12T19:01:46.653Z,101804.72
2019-05-12T19:06:54.298Z,101802.96
2019-05-12T19:12:00.421Z,101803.17
2019-05-12T19:17:06.500Z,101798.95
2019-05-12T19:22:14.115Z,101796.47
2019-05-12T19:27:20.952Z,101800.50
2019-05-12T19:32:28.281Z,101799.80
2019-05-12T19:37:34.040Z,101812.48
2019-05-12T19:42:40.031Z,101801.53
2019-05-12T19:47:49.073Z,101802.94
2019-05-12T19:52:53.640Z,101800.91
2019-05-12T19:58:03.153Z,101803.55
2019-05-12T20:03:08.591Z,101808.12
2019-05-12T20:08:14.086Z,101802.63
2019-05-12T20:13:19.960Z,101802.10
2019-05-12T20:18:25.773Z,101810.31
2019-05-12T20:23:33.450Z,101810.89
2019-05-12T20:28:42.102Z,101819.23
2019-05-12T20:33:46.405Z,101828.88
2019-05-12T20:38:53.895Z,101833.27
2019-05-12T20:44:00.082Z,101842.38
2019-05-12T20:49:10.620Z,101851.69
2019-05-12T20:54:17.907Z,101849.25
2019-05-12T20:59:23.720Z,101859.86
2019-05-12T21:04:31.910Z,101864.65
2019-05-12T21:09:36.289Z,101865.65
2019-05-12T21:14:51.129Z,101870.43
2019-05-12T21:19:56.844Z,101879.17
2019-05-12T21:24:56.758Z,101886.61
2019-05-12T21:30:09.882Z,101890.39
2019-05-12T21:35:19.144Z,101890.45
2019-05-12T21:40:24.256Z,101888.56
2019-05-12T21:45:30.724Z,101894.36
2019-05-12T21:50:38.086Z,101901.78
2019-05-12T21:55:44.206Z,101898.77
2019-05-12T22:01:04.207Z,101893.56
2019-05-12T22:06:15.499Z,101893.30
2019-05-12T22:11:12.208Z,101900.99
2019-05-12T22:16:18.387Z,101901.20
2019-05-12T22:21:24.370Z,101899.87
2019-05-12T22:26:36.315Z,101907.48
2019-05-12T22:31:38.656Z,101908.77
2019-05-12T22:36:55.444Z,101913.16
2019-05-12T22:41:52.517Z,101915.81
2019-05-12T22:47:04.258Z,101912.23
2019-05-12T22:52:07.228Z,101912.59
2019-05-12T22:57:13.677Z,101901.09
2019-05-12T23:02:28.053Z,101904.97
2019-05-12T23:07:29.663Z,101906.48
2019-05-12T23:12:35.026Z,101918.82
2019-05-12T23:17:47.370Z,101912.05
2019-05-12T23:22:49.325Z,101910.34
2019-05-12T23:28:00.446Z,101922.61
2019-05-12T23:33:03.923Z,101913.43
2019-05-12T23:38:15.555Z,101918.41
2019-05-12T23:43:17.394Z,101916.14
2019-05-12T23:48:23.268Z,101914.19
2019-05-12T23:53:29.144Z,101920.52
2019-05-12T23:58:35.114Z,101922.92
